地図

経路データ

SID SEASON NUMBER BASIN SUBBASIN NAME ISO_TIME NATURE LAT LON WMO_WIND WMO_PRES WMO_AGENCY TRACK_TYPE DIST2LAND LANDFALL IFLAG USA_AGENCY USA_ATCF_ID USA_LAT USA_LON USA_RECORD USA_STATUS USA_WIND USA_PRES USA_SSHS USA_R34_NE USA_R34_SE USA_R34_SW USA_R34_NW USA_R50_NE USA_R50_SE USA_R50_SW USA_R50_NW USA_R64_NE USA_R64_SE USA_R64_SW USA_R64_NW USA_POCI USA_ROCI USA_RMW USA_EYE TOKYO_LAT TOKYO_LON TOKYO_GRADE TOKYO_WIND TOKYO_PRES TOKYO_R50_DIR TOKYO_R50_LONG TOKYO_R50_SHORT TOKYO_R30_DIR TOKYO_R30_LONG TOKYO_R30_SHORT TOKYO_LAND CMA_LAT CMA_LON CMA_CAT CMA_WIND CMA_PRES HKO_LAT HKO_LON HKO_CAT HKO_WIND HKO_PRES NEWDELHI_LAT NEWDELHI_LON NEWDELHI_GRADE NEWDELHI_WIND NEWDELHI_PRES NEWDELHI_CI NEWDELHI_DP NEWDELHI_POCI REUNION_LAT REUNION_LON REUNION_TYPE REUNION_WIND REUNION_PRES REUNION_TNUM REUNION_CI REUNION_RMW REUNION_R34_NE REUNION_R34_SE REUNION_R34_SW REUNION_R34_NW REUNION_R50_NE REUNION_R50_SE REUNION_R50_SW REUNION_R50_NW REUNION_R64_NE REUNION_R64_SE REUNION_R64_SW REUNION_R64_NW BOM_LAT BOM_LON BOM_TYPE BOM_WIND BOM_PRES BOM_TNUM BOM_CI BOM_RMW BOM_R34_NE BOM_R34_SE BOM_R34_SW BOM_R34_NW BOM_R50_NE BOM_R50_SE BOM_R50_SW BOM_R50_NW BOM_R64_NE BOM_R64_SE BOM_R64_SW BOM_R64_NW BOM_ROCI BOM_POCI BOM_EYE BOM_POS_METHOD BOM_PRES_METHOD NADI_LAT NADI_LON NADI_CAT NADI_WIND NADI_PRES WELLINGTON_LAT WELLINGTON_LON WELLINGTON_WIND WELLINGTON_PRES DS824_LAT DS824_LON DS824_STAGE DS824_WIND DS824_PRES TD9636_LAT TD9636_LON TD9636_STAGE TD9636_WIND TD9636_PRES TD9635_LAT TD9635_LON TD9635_WIND TD9635_PRES TD9635_ROCI NEUMANN_LAT NEUMANN_LON NEUMANN_CLASS NEUMANN_WIND NEUMANN_PRES MLC_LAT MLC_LON MLC_CLASS MLC_WIND MLC_PRES USA_GUST BOM_GUST BOM_GUST_PER REUNION_GUST REUNION_GUST_PER USA_SEAHGT USA_SEARAD_NE USA_SEARAD_SE USA_SEARAD_SW USA_SEARAD_NW STORM_SPEED STORM_DIR
1947011S19051 1947 3 SI MM NOT_NAMED 1947-01-11 06:00:00 NR -18.6000 50.7000 reunion main 144 144 _____O________ -1 -18.6000 50.7000 99 9.90000 6 170
1947011S19051 1947 3 SI MM NOT_NAMED 1947-01-11 09:00:00 NR -18.8756 50.7369 main 157 157 _____P________ -1 -18.8756 50.7369 99 6 172
1947011S19051 1947 3 SI MM NOT_NAMED 1947-01-11 12:00:00 NR -19.1571 50.7856 main 177 177 _____P________ -1 -19.1571 50.7856 99 6 169
1947011S19051 1947 3 SI MM NOT_NAMED 1947-01-11 15:00:00 NR -19.4503 50.8581 main 197 197 _____P________ -1 -19.4503 50.8581 99 6 164
1947011S19051 1947 3 SI MM NOT_NAMED 1947-01-11 18:00:00 NR -19.7612 50.9661 main 218 218 _____P________ -1 -19.7612 50.9661 99 7 159
1947011S19051 1947 3 SI MM NOT_NAMED 1947-01-11 21:00:00 NR -20.0958 51.1219 main 240 240 _____P________ -1 -20.0958 51.1219 99 8 153
1947011S19051 1947 3 SI MM NOT_NAMED 1947-01-12 00:00:00 NR -20.4600 51.3377 main 266 266 _____P________ -1 -20.4600 51.3377 99 9 148
1947011S19051 1947 3 SI MM NOT_NAMED 1947-01-12 03:00:00 NR -20.8595 51.6261 main 308 308 _____P________ -1 -20.8595 51.6261 99 10 144
1947011S19051 1947 3 SI MM NOT_NAMED 1947-01-12 06:00:00 NR -21.3000 52.0000 reunion main 332 297 _____O________ -1 -21.3000 52.0000 99 9.90000 12 140
1947011S19051 1947 3 SI MM NOT_NAMED 1947-01-12 09:00:00 NR -21.7834 52.4666 main 290 262 _____P________ -1 -21.7834 52.4666 99 14 137
1947011S19051 1947 3 SI MM NOT_NAMED 1947-01-12 12:00:00 NR -22.2967 53.0091 main 262 242 _____P________ -1 -22.2967 53.0091 99 15 135
1947011S19051 1947 3 SI MM NOT_NAMED 1947-01-12 15:00:00 NR -22.8234 53.6041 main 242 241 _____P________ -1 -22.8234 53.6041 99 15 133
1947011S19051 1947 3 SI MM NOT_NAMED 1947-01-12 18:00:00 NR -23.3473 54.2275 main 250 250 _____P________ -1 -23.3473 54.2275 99 15 132
1947011S19051 1947 3 SI MM NOT_NAMED 1947-01-12 21:00:00 NR -23.8523 54.8546 main 288 286 _____P________ -1 -23.8523 54.8546 99 15 131
1947011S19051 1947 3 SI MM NOT_NAMED 1947-01-13 00:00:00 NR -24.3228 55.4598 main 324 324 _____P________ -1 -24.3228 55.4598 99 14 130
1947011S19051 1947 3 SI MM NOT_NAMED 1947-01-13 03:00:00 NR -24.7436 56.0171 main 371 371 _____P________ -1 -24.7436 56.0171 99 12 129
1947011S19051 1947 3 SI MM NOT_NAMED 1947-01-13 06:00:00 NR -25.1000 56.5000 reunion main 423 423 _____O________ -1 -25.1000 56.5000 99 9.90000 10 129
1947011S19051 1947 3 SI MM NOT_NAMED 1947-01-13 09:00:00 NR -25.3818 56.8880 main 466 466 _____P________ -1 -25.3818 56.8880 99 8 129
1947011S19051 1947 3 SI MM NOT_NAMED 1947-01-13 12:00:00 NR -25.5952 57.1866 main 496 496 _____P________ -1 -25.5952 57.1866 99 6 128
1947011S19051 1947 3 SI MM NOT_NAMED 1947-01-13 15:00:00 NR -25.7506 57.4079 main 524 524 _____P________ -1 -25.7506 57.4079 99 4 128
1947011S19051 1947 3 SI MM NOT_NAMED 1947-01-13 18:00:00 NR -25.8579 57.5644 main 542 542 _____P________ -1 -25.8579 57.5644 99 3 127
1947011S19051 1947 3 SI MM NOT_NAMED 1947-01-13 21:00:00 NR -25.9269 57.6690 main 546 546 _____P________ -1 -25.9269 57.6690 99 2 125
1947011S19051 1947 3 SI MM NOT_NAMED 1947-01-14 00:00:00 NR -25.9671 57.7344 main 556 556 _____P________ -1 -25.9671 57.7344 99 1 123
1947011S19051 1947 3 SI MM NOT_NAMED 1947-01-14 03:00:00 NR -25.9883 57.7737 main 560 560 _____P________ -1 -25.9883 57.7737 99 1 119
1947011S19051 1947 3 SI MM NOT_NAMED 1947-01-14 06:00:00 NR -26.0000 57.8000 reunion main 560 _____O________ -1 -26.0000 57.8000 99 9.90000 1 0

IBTrACS Databaseについて

本データベースは、米国NOAAが公開する1842年以降の世界の熱帯低気圧のベストトラックデータアーカイブInternational Best Track Archive for Climate Stewardship (IBTrACS)を、ウェブで閲覧しやすい形式に変換したものです。

最終更新日:2021-10-21